Time;durP1;ratioP1;P1;durP2;ratioP2;P2;SDS_P1;SDS_P2;PMS_P1;PMS_P2;Temp;Humidity;BMP_temperature;BMP_pressure;BME280_temperature;BME280_humidity;BME280_pressure;Samples;Min_cycle;Max_cycle;Signal;HPM_P1;HPM_P2
2023/12/24 00:00:13;;;;;;;1.13;0.50;;;;;;;12.87;68.84;100564.00;2078983;28;20204;-73
2023/12/24 00:01:14;;;;;;;1.03;0.47;;;;;;;12.88;68.64;100573.16;2081033;28;20180;-72
2023/12/24 00:02:14;;;;;;;1.03;0.47;;;;;;;12.88;68.54;100568.38;2079856;28;20448;-73
2023/12/24 00:03:15;;;;;;;0.77;0.53;;;;;;;12.21;69.00;100453.13;2080704;28;20577;-72
2023/12/24 00:04:15;;;;;;;0.87;0.50;;;;;;;12.57;69.04;100514.63;2080529;28;20219;-72
2023/12/24 00:05:16;;;;;;;1.10;0.50;;;;;;;12.86;69.55;100565.25;2080260;28;20186;-72
2023/12/24 00:06:16;;;;;;;0.50;0.30;;;;;;;12.82;70.09;100572.16;2080839;28;20189;-71
2023/12/24 00:07:17;;;;;;;0.40;0.40;;;;;;;12.76;69.91;100562.84;2080552;28;20189;-71
2023/12/24 00:08:18;;;;;;;0.33;0.30;;;;;;;12.80;70.12;100569.81;2080336;28;20203;-72
2023/12/24 00:09:18;;;;;;;0.27;0.27;;;;;;;11.94;69.37;100438.16;2081352;28;20224;-72
2023/12/24 00:10:19;;;;;;;0.60;0.40;;;;;;;12.80;69.74;100567.03;2080098;28;20203;-74
2023/12/24 00:11:19;;;;;;;0.57;0.20;;;;;;;12.58;69.47;100545.97;2080286;28;20192;-72
2023/12/24 00:12:20;;;;;;;0.67;0.40;;;;;;;12.74;69.21;100599.44;2079529;28;20185;-72
2023/12/24 00:13:20;;;;;;;0.90;0.50;;;;;;;12.87;69.16;100566.78;2080058;28;20192;-72
2023/12/24 00:14:21;;;;;;;0.63;0.30;;;;;;;12.87;69.57;100568.81;2080838;28;20192;-72
2023/12/24 00:15:21;;;;;;;1.20;0.50;;;;;;;12.89;69.82;100571.91;2081081;28;20188;-72
2023/12/24 00:16:22;;;;;;;0.47;0.40;;;;;;;12.83;69.72;100560.59;2081120;28;20188;-72
2023/12/24 00:17:22;;;;;;;0.57;0.37;;;;;;;12.87;69.69;100575.13;2079650;28;20216;-72
2023/12/24 00:18:23;;;;;;;5.20;0.40;;;;;;;12.78;70.09;100572.28;2080565;28;20204;-72
2023/12/24 00:19:23;;;;;;;0.33;0.33;;;;;;;12.06;70.43;100460.34;2079405;28;20657;-73
2023/12/24 00:20:24;;;;;;;1.13;0.50;;;;;;;12.55;70.52;100536.50;2080641;28;20188;-72
2023/12/24 00:21:24;;;;;;;0.67;0.40;;;;;;;12.39;70.87;100508.88;2081649;28;20185;-72
2023/12/24 00:22:27;;;;;;;0.50;0.40;;;;;;;12.77;70.98;100589.41;2081184;28;20280;-73
2023/12/24 00:23:28;;;;;;;0.50;0.40;;;;;;;12.45;71.02;100529.31;2079119;28;20184;-72
2023/12/24 00:24:28;;;;;;;0.30;0.30;;;;;;;12.73;71.48;100572.84;2081292;28;20438;-71
2023/12/24 00:25:29;;;;;;;1.17;0.40;;;;;;;12.25;71.85;100509.31;2081630;28;20700;-70
2023/12/24 00:26:31;;;;;;;1.00;0.50;;;;;;;12.70;72.98;100598.00;2080969;28;20179;-73
2023/12/24 00:27:31;;;;;;;0.77;0.50;;;;;;;12.55;73.54;100581.00;2080718;28;20272;-73
2023/12/24 00:28:32;;;;;;;1.20;0.50;;;;;;;12.67;73.63;100590.53;2081699;28;20442;-73
2023/12/24 00:29:32;;;;;;;0.40;0.30;;;;;;;12.05;74.30;100502.47;2081737;28;20177;-72
2023/12/24 00:30:33;;;;;;;0.37;0.37;;;;;;;12.60;74.27;100610.25;2080041;28;20454;-72
2023/12/24 00:31:34;;;;;;;0.50;0.40;;;;;;;11.69;73.71;100438.91;2080594;28;20674;-72
2023/12/24 00:32:34;;;;;;;0.30;0.30;;;;;;;12.18;74.03;100547.66;2080278;28;20814;-71
2023/12/24 00:33:35;;;;;;;0.70;0.40;;;;;;;12.59;74.55;100589.19;2081177;28;20182;-74
2023/12/24 00:34:35;;;;;;;0.20;0.20;;;;;;;12.35;74.90;100577.66;2080341;28;20176;-73
2023/12/24 00:35:36;;;;;;;0.40;0.40;;;;;;;12.21;75.09;100550.34;2081634;28;20185;-71
2023/12/24 00:36:36;;;;;;;2.17;0.97;;;;;;;12.54;75.77;100606.44;2081825;28;20190;-74
2023/12/24 00:37:37;;;;;;;0.37;0.33;;;;;;;12.50;76.07;100608.59;2081977;28;20673;-73
2023/12/24 00:38:37;;;;;;;0.97;0.40;;;;;;;12.22;76.35;100576.13;2081845;28;20232;-73
2023/12/24 00:39:38;;;;;;;0.43;0.30;;;;;;;12.06;76.88;100573.44;2081946;28;20199;-73
2023/12/24 00:40:38;;;;;;;1.03;0.50;;;;;;;12.48;76.89;100622.91;2081836;28;20188;-74
2023/12/24 00:41:39;;;;;;;3.00;0.50;;;;;;;12.48;77.04;100624.91;2081882;28;20184;-72
2023/12/24 00:42:41;;;;;;;0.60;0.40;;;;;;;12.48;77.15;100634.03;2081802;28;20177;-73
2023/12/24 00:43:43;;;;;;;0.50;0.30;;;;;;;12.32;77.23;100622.25;2081151;28;20203;-73
2023/12/24 00:44:43;;;;;;;0.67;0.30;;;;;;;12.51;77.44;100646.25;2076272;28;20518;-74
2023/12/24 00:45:44;;;;;;;1.97;0.47;;;;;;;12.49;77.64;100635.59;2076746;28;20466;-73
2023/12/24 00:46:45;;;;;;;0.57;0.40;;;;;;;12.01;77.95;100560.91;2081472;28;20182;-73
2023/12/24 00:47:45;;;;;;;0.97;0.40;;;;;;;12.29;77.85;100603.69;2081650;28;20185;-72
2023/12/24 00:48:46;;;;;;;0.80;0.40;;;;;;;12.24;78.04;100610.56;2081612;28;20612;-73
2023/12/24 00:49:46;;;;;;;1.33;0.60;;;;;;;11.89;78.10;100578.31;2081665;28;20217;-74
2023/12/24 00:50:47;;;;;;;1.13;0.70;;;;;;;12.09;78.65;100603.13;2080456;28;20193;-73
2023/12/24 00:51:47;;;;;;;1.07;0.47;;;;;;;12.34;79.44;100644.81;2081532;28;20181;-73
2023/12/24 00:52:48;;;;;;;0.77;0.40;;;;;;;12.16;80.24;100634.25;2081112;28;20263;-73
2023/12/24 00:53:48;;;;;;;1.33;0.60;;;;;;;12.04;80.16;100617.56;2078432;28;20200;-72
2023/12/24 00:54:49;;;;;;;0.60;0.40;;;;;;;11.68;80.70;100572.63;2081973;28;20173;-72
2023/12/24 00:55:49;;;;;;;1.17;0.50;;;;;;;12.23;81.22;100661.81;2081530;28;20246;-73
2023/12/24 00:56:49;;;;;;;0.57;0.40;;;;;;;12.23;81.34;100667.38;2081987;28;20211;-71
2023/12/24 00:57:50;;;;;;;0.73;0.40;;;;;;;12.20;81.80;100665.47;2081661;28;20260;-74
2023/12/24 00:58:50;;;;;;;0.70;0.60;;;;;;;12.18;81.73;100661.56;2081787;28;20241;-73
2023/12/24 00:59:51;;;;;;;0.70;0.50;;;;;;;12.16;81.88;100667.59;2081808;28;20180;-74
2023/12/24 01:00:51;;;;;;;2.00;0.77;;;;;;;12.00;82.22;100647.44;2081294;28;20182;-74
2023/12/24 01:01:52;;;;;;;0.80;0.47;;;;;;;11.95;82.80;100637.63;2081578;28;20236;-74
2023/12/24 01:02:52;;;;;;;0.80;0.50;;;;;;;12.08;83.49;100665.44;2081505;28;20427;-73
2023/12/24 01:03:53;;;;;;;0.77;0.40;;;;;;;11.96;83.81;100655.06;2081167;28;20565;-73
2023/12/24 01:04:53;;;;;;;0.57;0.50;;;;;;;11.94;84.08;100652.72;2080513;28;20203;-72
2023/12/24 01:05:54;;;;;;;0.90;0.60;;;;;;;11.83;84.42;100646.72;2080599;28;20956;-73
2023/12/24 01:06:54;;;;;;;0.90;0.60;;;;;;;11.98;84.76;100677.63;2081080;28;20185;-73
2023/12/24 01:07:55;;;;;;;0.97;0.60;;;;;;;11.93;85.11;100675.41;2081734;28;20633;-72
2023/12/24 01:08:55;;;;;;;1.00;0.50;;;;;;;11.87;85.69;100672.38;2081763;28;20173;-71
2023/12/24 01:09:56;;;;;;;1.23;0.63;;;;;;;11.89;86.03;100686.59;2081672;28;20265;-74
2023/12/24 01:10:56;;;;;;;1.17;0.80;;;;;;;11.32;86.47;100597.78;2081501;28;20173;-73
2023/12/24 01:11:57;;;;;;;1.47;0.50;;;;;;;11.80;86.68;100683.72;2081467;28;20264;-72
2023/12/24 01:12:57;;;;;;;1.17;0.73;;;;;;;11.92;86.43;100702.41;2081335;28;20185;-73
2023/12/24 01:13:58;;;;;;;1.27;0.70;;;;;;;11.41;86.74;100627.66;2081450;28;20235;-74
2023/12/24 01:14:59;;;;;;;0.47;0.40;;;;;;;11.83;87.22;100696.69;2081752;28;20485;-73
2023/12/24 01:16:01;;;;;;;0.97;0.77;;;;;;;11.27;87.80;100614.19;2081696;28;20184;-73
2023/12/24 01:17:02;;;;;;;1.47;0.73;;;;;;;11.79;87.92;100698.78;2081282;28;20539;-73
2023/12/24 01:18:03;;;;;;;0.87;0.50;;;;;;;11.78;88.18;100711.09;2081068;28;20439;-74
2023/12/24 01:19:04;;;;;;;1.03;0.57;;;;;;;11.72;87.90;100692.66;2081063;28;20503;-73
2023/12/24 01:20:17;;;;;;;1.07;0.60;;;;;;;11.69;88.50;100699.09;2080292;28;20181;-74
2023/12/24 01:21:17;;;;;;;0.77;0.60;;;;;;;11.49;88.79;100687.31;2080822;28;20535;-74
2023/12/24 01:22:18;;;;;;;1.03;0.70;;;;;;;11.62;89.18;100715.91;2080642;28;20430;-73
2023/12/24 01:23:18;;;;;;;1.47;0.77;;;;;;;11.56;89.26;100718.44;2081066;28;20189;-72
2023/12/24 01:24:19;;;;;;;0.70;0.60;;;;;;;11.43;89.90;100695.38;2081382;28;20223;-72
2023/12/24 01:25:19;;;;;;;2.53;0.60;;;;;;;11.52;90.11;100711.41;2081164;28;20188;-71
2023/12/24 01:26:20;;;;;;;1.03;0.70;;;;;;;10.93;90.56;100627.75;2081527;28;20192;-72
2023/12/24 01:27:20;;;;;;;1.57;0.80;;;;;;;11.51;90.64;100724.50;2081047;28;20259;-72
2023/12/24 01:28:21;;;;;;;1.00;0.70;;;;;;;11.52;90.72;100728.06;2081662;28;20182;-74
2023/12/24 01:29:22;;;;;;;1.20;0.50;;;;;;;11.05;90.78;100671.41;2081506;28;20181;-73
2023/12/24 01:30:22;;;;;;;1.10;0.70;;;;;;;11.53;90.78;100729.63;2081780;28;20180;-73
2023/12/24 01:31:23;;;;;;;1.33;0.70;;;;;;;11.51;91.14;100751.47;2081449;28;20956;-72
2023/12/24 01:32:23;;;;;;;1.30;0.87;;;;;;;11.41;90.59;100719.22;2081200;28;20391;-74
2023/12/24 01:33:24;;;;;;;1.70;0.70;;;;;;;11.49;90.97;100734.47;2081580;28;20184;-73
2023/12/24 01:34:24;;;;;;;1.50;0.67;;;;;;;11.51;91.21;100746.72;2081793;28;20183;-73
2023/12/24 01:35:25;;;;;;;1.43;0.87;;;;;;;10.83;90.61;100637.09;2081454;28;20208;-73
2023/12/24 01:36:25;;;;;;;1.07;0.73;;;;;;;11.30;90.72;100702.84;2081632;28;20188;-73
2023/12/24 01:37:26;;;;;;;1.43;0.90;;;;;;;11.47;91.02;100729.38;2081764;28;20238;-73
2023/12/24 01:38:26;;;;;;;2.43;0.90;;;;;;;11.45;91.36;100739.34;2081389;28;20181;-72
2023/12/24 01:39:27;;;;;;;1.63;0.90;;;;;;;11.47;91.60;100745.25;2081673;28;20690;-73
2023/12/24 01:40:27;;;;;;;0.90;0.60;;;;;;;10.52;91.75;100614.50;2080044;28;20596;-73
2023/12/24 01:41:28;;;;;;;1.13;0.70;;;;;;;11.23;92.37;100744.63;2080990;28;20327;-71
2023/12/24 01:42:28;;;;;;;1.30;0.77;;;;;;;11.21;92.59;100730.41;2081460;28;20184;-73
2023/12/24 01:43:29;;;;;;;1.63;1.03;;;;;;;11.25;92.97;100736.66;2081376;28;20184;-74
2023/12/24 01:44:29;;;;;;;1.47;0.63;;;;;;;11.32;93.16;100752.38;2077484;28;20215;-74
2023/12/24 01:45:30;;;;;;;2.83;0.87;;;;;;;11.33;93.48;100762.25;2081153;28;20262;-73
2023/12/24 01:46:31;;;;;;;1.83;0.87;;;;;;;10.63;93.79;100650.25;2081606;28;20188;-73
2023/12/24 01:47:32;;;;;;;3.83;0.70;;;;;;;11.36;93.89;100756.59;2081378;28;20260;-73
2023/12/24 01:48:32;;;;;;;1.50;0.90;;;;;;;10.97;94.13;100706.84;2081584;28;20426;-74
2023/12/24 01:49:34;;;;;;;2.27;0.90;;;;;;;11.35;94.40;100771.69;2080651;28;20284;-73
2023/12/24 01:50:36;;;;;;;1.13;0.50;;;;;;;11.35;95.15;100768.91;2080811;28;20185;-73
2023/12/24 01:51:37;;;;;;;0.90;0.80;;;;;;;11.24;95.61;100762.06;2081464;28;21016;-73
2023/12/24 01:52:38;;;;;;;1.00;0.80;;;;;;;11.27;96.09;100775.09;2081397;28;20949;-73
2023/12/24 01:53:39;;;;;;;1.83;0.80;;;;;;;11.28;95.92;100776.63;2081422;28;20892;-73
2023/12/24 01:54:41;;;;;;;1.43;0.70;;;;;;;10.83;96.21;100723.84;2081711;28;20205;-73
2023/12/24 01:55:42;;;;;;;1.53;1.00;;;;;;;11.26;96.54;100798.47;2081041;28;20427;-73
2023/12/24 01:56:43;;;;;;;1.30;0.80;;;;;;;11.23;96.72;100782.69;2081337;28;20514;-74
2023/12/24 01:57:43;;;;;;;1.60;0.97;;;;;;;11.18;97.07;100767.34;2081713;28;20426;-74
2023/12/24 01:58:44;;;;;;;2.60;1.00;;;;;;;10.80;96.94;100721.91;2080889;28;20242;-73
2023/12/24 01:59:44;;;;;;;0.80;0.60;;;;;;;11.17;97.54;100787.22;2081213;28;20188;-72
2023/12/24 02:00:47;;;;;;;1.87;1.10;;;;;;;10.63;97.66;100698.16;2081320;28;20204;-71
2023/12/24 02:01:47;;;;;;;2.87;1.00;;;;;;;11.16;97.63;100777.31;2081470;28;20177;-74
2023/12/24 02:02:49;;;;;;;1.77;0.80;;;;;;;10.45;97.39;100674.84;2081335;28;20404;-73
2023/12/24 02:03:50;;;;;;;1.83;0.97;;;;;;;10.77;97.51;100733.84;2081419;28;20297;-73
2023/12/24 02:04:50;;;;;;;1.87;0.83;;;;;;;11.08;97.58;100782.25;2080747;28;20988;-73
2023/12/24 02:05:52;;;;;;;1.70;1.00;;;;;;;10.91;97.51;100766.03;2081180;28;20702;-73
2023/12/24 02:06:52;;;;;;;1.67;1.03;;;;;;;10.91;97.40;100763.25;2081499;28;20256;-73
2023/12/24 02:07:55;;;;;;;1.60;0.90;;;;;;;11.03;98.08;100793.06;2081248;28;20444;-72
2023/12/24 02:08:56;;;;;;;2.17;1.10;;;;;;;10.97;98.42;100790.03;2081342;28;20686;-73
2023/12/24 02:09:58;;;;;;;1.63;0.90;;;;;;;10.90;98.69;100767.22;2081330;28;20446;-72
2023/12/24 02:10:58;;;;;;;1.33;0.90;;;;;;;10.97;98.81;100784.47;2072683;28;20424;-74
2023/12/24 02:11:59;;;;;;;1.97;0.70;;;;;;;10.82;99.70;100772.16;2072724;28;20938;-73
2023/12/24 02:12:59;;;;;;;1.40;1.00;;;;;;;10.89;99.67;100779.53;2076496;28;20177;-72
2023/12/24 02:14:02;;;;;;;3.23;1.00;;;;;;;10.66;100.00;100738.09;2081351;28;20623;-73
2023/12/24 02:15:03;;;;;;;1.40;1.00;;;;;;;10.46;99.97;100713.16;2081532;28;20248;-73
2023/12/24 02:16:05;;;;;;;1.57;0.70;;;;;;;9.99;100.00;100644.56;2081290;28;21019;-73
2023/12/24 02:17:07;;;;;;;2.07;1.00;;;;;;;10.72;100.00;100767.63;2081149;28;20419;-73
2023/12/24 02:18:08;;;;;;;0.80;0.70;;;;;;;10.72;100.00;100784.25;2081292;28;20820;-73
2023/12/24 02:19:16;;;;;;;4.23;1.10;;;;;;;9.30;100.00;100553.47;2080971;28;20514;-73
2023/12/24 02:20:24;;;;;;;1.43;0.90;;;;;;;10.89;100.00;100785.06;2076482;28;20203;-73
2023/12/24 02:21:25;;;;;;;1.20;0.90;;;;;;;10.48;99.25;100713.53;2073354;28;20562;-72
2023/12/24 02:22:25;;;;;;;1.10;0.90;;;;;;;10.25;99.11;100679.63;2075965;28;20436;-73
2023/12/24 02:23:26;;;;;;;2.37;0.87;;;;;;;10.83;99.30;100775.72;2080748;28;20185;-72
2023/12/24 02:24:27;;;;;;;1.47;0.93;;;;;;;10.06;99.24;100661.84;2081522;28;20298;-73
2023/12/24 02:25:28;;;;;;;1.37;0.87;;;;;;;10.65;99.45;100745.63;2081129;28;20208;-72
2023/12/24 02:26:35;;;;;;;2.77;1.20;;;;;;;10.82;99.75;100791.56;2081234;28;20182;-73
2023/12/24 02:27:55;;;;;;;1.23;0.70;;;;;;;10.25;98.92;100685.94;2081343;28;20831;-71
2023/12/24 02:29:01;;;;;;;1.60;0.90;;;;;;;10.88;99.25;100762.13;2081539;28;20473;-73
2023/12/24 02:30:07;;;;;;;1.37;0.87;;;;;;;10.81;99.16;100775.38;2080573;28;20422;-74
2023/12/24 02:31:11;;;;;;;1.57;1.00;;;;;;;10.79;98.95;100778.56;2081328;28;20432;-72
2023/12/24 02:32:15;;;;;;;1.23;0.80;;;;;;;10.81;99.14;100776.13;2076428;28;20444;-73
2023/12/24 02:33:16;;;;;;;0.77;0.53;;;;;;;10.78;99.63;100776.22;2078259;28;20920;-73
2023/12/24 02:34:19;;;;;;;1.10;0.70;;;;;;;9.83;99.46;100628.66;2080340;28;20431;-72
2023/12/24 02:35:21;;;;;;;1.43;0.80;;;;;;;10.82;99.23;100785.25;2074984;28;20456;-71
2023/12/24 02:36:21;;;;;;;0.87;0.67;;;;;;;10.50;99.39;100738.06;2080741;28;20429;-72
2023/12/24 02:37:23;;;;;;;1.03;0.60;;;;;;;10.74;99.71;100797.69;2080437;28;20439;-71
2023/12/24 02:38:24;;;;;;;1.17;0.73;;;;;;;10.45;99.40;100763.50;2080803;28;20189;-72
2023/12/24 02:39:24;;;;;;;4.23;0.80;;;;;;;10.55;99.51;100793.72;2079199;28;20497;-72
2023/12/24 02:40:25;;;;;;;0.87;0.53;;;;;;;9.85;99.54;100667.00;2080365;28;20419;-71
2023/12/24 02:41:25;;;;;;;1.07;0.60;;;;;;;10.74;99.81;100789.38;2080514;28;20189;-74
2023/12/24 02:42:26;;;;;;;0.93;0.70;;;;;;;10.62;100.00;100770.63;2081202;28;20189;-72
2023/12/24 02:43:26;;;;;;;1.87;0.90;;;;;;;10.77;100.00;100789.28;2081032;28;20184;-73
2023/12/24 02:44:27;;;;;;;0.80;0.70;;;;;;;10.76;100.00;100792.50;2081156;28;20184;-73
2023/12/24 02:45:27;;;;;;;0.77;0.60;;;;;;;10.34;99.76;100713.84;2080894;28;20239;-73
2023/12/24 02:46:28;;;;;;;1.33;0.73;;;;;;;10.74;99.78;100792.94;2080687;28;20188;-73
2023/12/24 02:47:28;;;;;;;1.23;0.93;;;;;;;10.58;99.81;100765.19;2080845;28;20232;-72
2023/12/24 02:48:29;;;;;;;2.23;1.00;;;;;;;10.71;100.00;100779.91;2081309;28;20191;-72
2023/12/24 02:49:29;;;;;;;2.00;0.80;;;;;;;9.52;100.00;100588.59;2081215;28;20238;-73
2023/12/24 02:50:30;;;;;;;1.13;0.67;;;;;;;10.79;100.00;100797.19;2080491;28;20185;-72
2023/12/24 02:51:30;;;;;;;0.80;0.60;;;;;;;10.79;100.00;100784.13;2080674;28;20184;-75
2023/12/24 02:52:31;;;;;;;0.80;0.60;;;;;;;10.84;100.00;100788.34;2081265;28;20177;-71
2023/12/24 02:53:31;;;;;;;0.40;0.40;;;;;;;9.92;99.44;100644.69;2081278;28;20300;-72
2023/12/24 02:54:32;;;;;;;1.13;0.70;;;;;;;10.82;99.16;100777.69;2080941;28;20272;-72
2023/12/24 02:55:32;;;;;;;0.80;0.50;;;;;;;10.80;99.49;100790.41;2080502;28;20256;-72
2023/12/24 02:56:36;;;;;;;0.77;0.60;;;;;;;10.80;99.39;100790.41;2080292;28;20191;-71
2023/12/24 02:57:37;;;;;;;0.70;0.50;;;;;;;10.43;99.14;100727.91;2080716;28;20180;-73
2023/12/24 02:58:37;;;;;;;1.03;0.70;;;;;;;10.89;98.93;100798.94;2080926;28;20453;-71
2023/12/24 02:59:38;;;;;;;0.70;0.50;;;;;;;10.93;98.60;100789.34;2080996;28;20697;-73
2023/12/24 03:00:38;;;;;;;0.70;0.50;;;;;;;10.88;98.44;100800.16;2080916;28;20201;-73
2023/12/24 03:01:39;;;;;;;0.53;0.50;;;;;;;10.32;98.20;100712.72;2081078;28;20607;-73
2023/12/24 03:02:39;;;;;;;0.50;0.40;;;;;;;10.90;98.19;100789.41;2080916;28;20551;-72
2023/12/24 03:03:39;;;;;;;1.50;0.80;;;;;;;10.93;98.06;100788.56;2081071;28;20665;-73
2023/12/24 03:04:40;;;;;;;2.93;0.60;;;;;;;10.95;97.71;100803.53;2081403;28;20211;-73
2023/12/24 03:05:41;;;;;;;0.80;0.60;;;;;;;10.59;97.75;100744.56;2080858;28;20197;-73
2023/12/24 03:06:41;;;;;;;1.00;0.70;;;;;;;10.90;97.58;100781.88;2081153;28;20177;-71
2023/12/24 03:07:42;;;;;;;0.80;0.50;;;;;;;10.94;97.52;100798.44;2080936;28;20181;-73
2023/12/24 03:08:42;;;;;;;0.90;0.50;;;;;;;10.92;97.54;100809.19;2081009;28;20269;-74
2023/12/24 03:09:43;;;;;;;1.40;0.53;;;;;;;10.96;97.64;100818.22;2081040;28;20202;-73
2023/12/24 03:10:43;;;;;;;0.83;0.43;;;;;;;10.34;97.46;100705.53;2082189;28;20568;-72
2023/12/24 03:11:44;;;;;;;0.77;0.57;;;;;;;10.81;97.09;100794.78;2082460;28;20252;-71
2023/12/24 03:12:44;;;;;;;0.77;0.57;;;;;;;10.62;97.03;100759.56;2082491;28;20564;-74
2023/12/24 03:13:45;;;;;;;1.30;0.57;;;;;;;10.97;97.11;100825.31;2082401;28;20685;-73
2023/12/24 03:14:45;;;;;;;1.00;0.70;;;;;;;10.80;97.27;100801.50;2082558;28;20239;-72
2023/12/24 03:15:46;;;;;;;0.77;0.50;;;;;;;10.96;97.41;100829.28;2082129;28;20180;-73
2023/12/24 03:16:46;;;;;;;0.93;0.60;;;;;;;10.23;97.55;100718.81;2082743;28;20251;-72
2023/12/24 03:17:47;;;;;;;1.13;0.70;;;;;;;10.61;97.52;100769.84;2082284;28;20617;-73
2023/12/24 03:18:47;;;;;;;1.37;0.60;;;;;;;10.94;97.84;100818.63;2082111;28;20663;-74
2023/12/24 03:19:48;;;;;;;1.23;0.60;;;;;;;10.82;97.90;100812.97;2081722;28;20598;-74
2023/12/24 03:20:48;;;;;;;1.07;0.70;;;;;;;10.44;97.83;100753.59;2081592;28;20718;-72
2023/12/24 03:21:49;;;;;;;1.23;0.53;;;;;;;10.93;98.13;100846.78;2080931;28;20235;-73
2023/12/24 03:22:49;;;;;;;1.50;0.80;;;;;;;10.11;97.83;100733.34;2082663;28;20180;-73
2023/12/24 03:23:50;;;;;;;0.40;0.40;;;;;;;10.30;98.25;100740.81;2081852;28;20227;-73
2023/12/24 03:24:51;;;;;;;0.70;0.50;;;;;;;10.58;98.88;100795.66;2081312;28;20181;-73
2023/12/24 03:25:51;;;;;;;1.33;0.63;;;;;;;10.14;99.43;100717.84;2081511;28;20737;-72
2023/12/24 03:26:52;;;;;;;1.40;0.50;;;;;;;10.29;99.35;100742.03;2082612;28;20181;-71
2023/12/24 03:27:52;;;;;;;0.90;0.50;;;;;;;10.85;99.37;100832.28;2081480;28;20276;-73
2023/12/24 03:28:53;;;;;;;0.47;0.40;;;;;;;10.73;99.28;100823.84;2081753;28;20278;-73
2023/12/24 03:29:53;;;;;;;0.97;0.53;;;;;;;10.57;99.13;100796.88;2082068;28;20203;-73
2023/12/24 03:30:54;;;;;;;1.27;0.60;;;;;;;10.71;99.37;100804.09;2081977;28;20185;-73
2023/12/24 03:31:55;;;;;;;0.73;0.50;;;;;;;10.78;99.60;100815.81;2082526;28;20406;-72
2023/12/24 03:32:55;;;;;;;0.60;0.40;;;;;;;10.17;99.76;100725.28;2082754;28;20183;-71
2023/12/24 03:33:56;;;;;;;1.53;0.57;;;;;;;9.81;99.79;100678.13;2079631;28;20553;-73
2023/12/24 03:34:56;;;;;;;1.33;0.50;;;;;;;10.51;99.78;100772.84;2082259;28;20662;-72
2023/12/24 03:35:57;;;;;;;0.60;0.43;;;;;;;10.81;99.92;100811.41;2081944;28;20173;-73
2023/12/24 03:36:58;;;;;;;2.23;0.40;;;;;;;10.76;100.00;100814.69;2082380;28;20559;-74
2023/12/24 03:37:59;;;;;;;0.40;0.30;;;;;;;10.44;100.00;100762.69;2082640;28;20466;-73
2023/12/24 03:39:00;;;;;;;1.27;0.60;;;;;;;10.50;100.00;100768.53;2076517;28;20173;-73
2023/12/24 03:40:00;;;;;;;0.30;0.30;;;;;;;10.65;100.00;100781.63;2082599;28;20408;-72
2023/12/24 03:41:01;;;;;;;0.50;0.30;;;;;;;10.70;100.00;100822.72;2082433;28;20570;-71
2023/12/24 03:42:01;;;;;;;0.83;0.47;;;;;;;10.72;100.00;100819.50;2081943;28;20224;-73
2023/12/24 03:43:02;;;;;;;0.50;0.40;;;;;;;9.41;100.00;100601.84;2082483;28;20177;-73
2023/12/24 03:44:03;;;;;;;1.10;0.50;;;;;;;10.62;100.00;100799.16;2082424;28;20183;-73
2023/12/24 03:45:04;;;;;;;1.33;0.50;;;;;;;10.71;100.00;100810.41;2082417;28;20241;-74
2023/12/24 03:46:05;;;;;;;1.30;0.70;;;;;;;10.17;100.00;100731.63;2082271;28;20480;-73
2023/12/24 03:47:05;;;;;;;1.00;0.60;;;;;;;10.74;100.00;100820.66;2081763;28;20916;-72
2023/12/24 03:48:24;;;;;;;0.50;0.50;;;;;;;10.65;100.00;100817.66;2082165;28;20222;-72
2023/12/24 03:49:25;;;;;;;0.83;0.47;;;;;;;10.72;100.00;100833.38;2079551;28;20208;-72
2023/12/24 03:50:25;;;;;;;2.73;0.40;;;;;;;10.66;100.00;100824.78;2081605;28;20443;-72
2023/12/24 03:51:26;;;;;;;0.70;0.40;;;;;;;10.49;100.00;100795.44;2081371;28;20274;-73
2023/12/24 03:52:26;;;;;;;0.77;0.40;;;;;;;10.69;100.00;100837.00;2081191;28;20181;-73
2023/12/24 03:53:27;;;;;;;0.70;0.47;;;;;;;10.68;100.00;100838.22;2081023;28;20187;-73
2023/12/24 03:54:28;;;;;;;0.70;0.30;;;;;;;10.67;100.00;100834.63;2082121;28;20209;-74
2023/12/24 03:55:28;;;;;;;0.53;0.40;;;;;;;10.58;100.00;100828.91;2082036;28;20423;-73
2023/12/24 03:56:29;;;;;;;0.80;0.40;;;;;;;10.28;100.00;100770.94;2081750;28;20276;-73
2023/12/24 03:57:29;;;;;;;0.57;0.33;;;;;;;10.76;100.00;100843.16;2081959;28;20185;-73
2023/12/24 03:58:30;;;;;;;0.50;0.30;;;;;;;10.58;100.00;100811.50;2082246;28;20196;-73
2023/12/24 03:59:31;;;;;;;0.53;0.33;;;;;;;10.62;100.00;100824.09;2081476;28;20204;-73
2023/12/24 04:00:31;;;;;;;0.30;0.30;;;;;;;10.51;100.00;100817.97;2081674;28;20188;-72
2023/12/24 04:01:32;;;;;;;0.40;0.40;;;;;;;10.31;100.00;100797.78;2082286;28;20654;-73
2023/12/24 04:02:32;;;;;;;0.30;0.30;;;;;;;9.64;100.00;100709.69;2082517;28;20267;-73
2023/12/24 04:03:33;;;;;;;0.83;0.30;;;;;;;10.52;100.00;100841.72;2082354;28;20188;-73
2023/12/24 04:04:33;;;;;;;0.90;0.50;;;;;;;10.64;100.00;100846.59;2082245;28;20278;-73
2023/12/24 04:05:34;;;;;;;0.70;0.40;;;;;;;10.67;100.00;100859.59;2081970;28;20641;-73
2023/12/24 04:06:34;;;;;;;1.47;0.40;;;;;;;10.77;100.00;100866.13;2082196;28;20219;-73
2023/12/24 04:07:35;;;;;;;0.37;0.30;;;;;;;10.62;100.00;100860.13;2081654;28;20180;-74
2023/12/24 04:08:35;;;;;;;1.20;0.50;;;;;;;10.66;100.00;100871.88;2082216;28;20176;-72
2023/12/24 04:09:36;;;;;;;0.73;0.40;;;;;;;10.40;100.00;100827.72;2082172;28;20184;-71
2023/12/24 04:10:39;;;;;;;0.43;0.30;;;;;;;9.93;100.00;100774.38;2082297;28;20183;-73
2023/12/24 04:11:40;;;;;;;0.90;0.60;;;;;;;10.03;100.00;100772.59;2082038;28;20272;-72
2023/12/24 04:12:40;;;;;;;0.40;0.30;;;;;;;10.42;100.00;100839.94;2081786;28;20417;-72
2023/12/24 04:13:41;;;;;;;0.30;0.30;;;;;;;9.77;100.00;100752.16;2081751;28;20181;-72
2023/12/24 04:14:41;;;;;;;1.03;0.50;;;;;;;10.67;100.00;100884.53;2080452;28;20196;-73
2023/12/24 04:15:42;;;;;;;3.43;0.50;;;;;;;10.72;100.00;100886.03;2082135;28;20181;-73
2023/12/24 04:16:43;;;;;;;0.73;0.50;;;;;;;10.67;100.00;100887.31;2082286;28;20566;-74
2023/12/24 04:17:43;;;;;;;0.87;0.47;;;;;;;10.46;100.00;100873.09;2081516;28;20212;-73
2023/12/24 04:18:44;;;;;;;0.37;0.37;;;;;;;10.62;100.00;100876.75;2081616;28;20612;-74
2023/12/24 04:19:45;;;;;;;1.67;0.40;;;;;;;10.49;100.00;100864.72;2082133;28;20189;-73
2023/12/24 04:20:45;;;;;;;0.30;0.30;;;;;;;10.08;100.00;100811.69;2082146;28;20231;-73
2023/12/24 04:21:46;;;;;;;0.67;0.40;;;;;;;10.62;100.00;100898.13;2081392;28;20514;-73
2023/12/24 04:22:46;;;;;;;0.43;0.30;;;;;;;10.60;100.00;100886.69;2081554;28;20317;-73
2023/12/24 04:23:47;;;;;;;0.67;0.37;;;;;;;10.64;100.00;100882.63;2082056;28;20190;-72
2023/12/24 04:24:48;;;;;;;0.87;0.40;;;;;;;10.67;100.00;100894.84;2080236;28;20346;-72
2023/12/24 04:25:49;;;;;;;1.43;0.30;;;;;;;10.03;100.00;100780.91;2080692;28;20197;-72
2023/12/24 04:26:49;;;;;;;0.30;0.20;;;;;;;10.66;100.00;100891.28;2082152;28;20570;-73
2023/12/24 04:27:50;;;;;;;0.40;0.40;;;;;;;10.19;100.00;100817.81;2081852;28;20431;-73
2023/12/24 04:28:52;;;;;;;0.33;0.30;;;;;;;10.73;100.00;100895.91;2081994;28;20206;-73
2023/12/24 04:30:11;;;;;;;0.30;0.30;;;;;;;10.71;100.00;100898.34;2081201;28;20762;-74
2023/12/24 04:31:12;;;;;;;0.33;0.33;;;;;;;9.79;100.00;100762.81;2081482;28;20445;-73
2023/12/24 04:32:12;;;;;;;0.80;0.30;;;;;;;10.51;100.00;100872.59;2081320;28;20430;-73
2023/12/24 04:33:13;;;;;;;0.30;0.30;;;;;;;10.71;100.00;100893.56;2081619;28;20227;-73
2023/12/24 04:34:13;;;;;;;0.30;0.30;;;;;;;10.71;100.00;100876.16;2081693;28;20180;-74
2023/12/24 04:35:14;;;;;;;1.60;0.40;;;;;;;10.47;100.00;100838.63;2081966;28;20192;-72
2023/12/24 04:36:20;;;;;;;0.53;0.30;;;;;;;10.02;100.00;100794.00;2082030;28;20661;-74
2023/12/24 04:37:21;;;;;;;0.47;0.37;;;;;;;10.75;100.00;100888.72;2082003;28;20188;-74
2023/12/24 04:38:21;;;;;;;0.60;0.40;;;;;;;10.43;100.00;100863.66;2082009;28;20454;-73
2023/12/24 04:39:24;;;;;;;2.33;0.50;;;;;;;10.57;100.00;100876.44;2081940;28;20188;-73
2023/12/24 04:40:24;;;;;;;0.67;0.40;;;;;;;10.58;100.00;100889.09;2081731;28;20243;-73
2023/12/24 04:41:28;;;;;;;0.63;0.43;;;;;;;10.65;100.00;100889.72;2081879;28;20514;-74
2023/12/24 04:42:29;;;;;;;0.53;0.37;;;;;;;10.40;100.00;100855.41;2082028;28;20232;-74
2023/12/24 04:43:29;;;;;;;0.53;0.40;;;;;;;10.34;100.00;100846.81;2082065;28;20508;-73